sensor_id;sensor_type;location;lat;lon;timestamp;temperature;humidity
14705;DHT22;7442;50.840;3.396;2022-12-18T00:01:38;19.60;44.50
14705;DHT22;7442;50.840;3.396;2022-12-18T00:04:22;19.60;44.60
14705;DHT22;7442;50.840;3.396;2022-12-18T00:06:48;19.60;44.40
14705;DHT22;7442;50.840;3.396;2022-12-18T00:09:18;19.60;44.40
14705;DHT22;7442;50.840;3.396;2022-12-18T00:11:48;19.60;44.40
14705;DHT22;7442;50.840;3.396;2022-12-18T00:14:20;19.50;44.40
14705;DHT22;7442;50.840;3.396;2022-12-18T00:16:50;19.50;44.30
14705;DHT22;7442;50.840;3.396;2022-12-18T00:19:20;19.50;44.10
14705;DHT22;7442;50.840;3.396;2022-12-18T00:21:50;19.50;44.10
14705;DHT22;7442;50.840;3.396;2022-12-18T00:24:20;19.50;44.00
14705;DHT22;7442;50.840;3.396;2022-12-18T00:26:51;19.50;43.90
14705;DHT22;7442;50.840;3.396;2022-12-18T00:29:21;19.40;43.80
14705;DHT22;7442;50.840;3.396;2022-12-18T00:31:51;19.40;43.80
14705;DHT22;7442;50.840;3.396;2022-12-18T00:34:21;19.40;44.30
14705;DHT22;7442;50.840;3.396;2022-12-18T00:36:51;19.40;43.70
14705;DHT22;7442;50.840;3.396;2022-12-18T00:39:21;19.40;43.50
14705;DHT22;7442;50.840;3.396;2022-12-18T00:41:51;19.40;43.50
14705;DHT22;7442;50.840;3.396;2022-12-18T00:44:39;19.30;43.40
14705;DHT22;7442;50.840;3.396;2022-12-18T00:47:09;19.40;43.40
14705;DHT22;7442;50.840;3.396;2022-12-18T00:49:40;19.30;43.30
14705;DHT22;7442;50.840;3.396;2022-12-18T00:52:13;19.30;43.20
14705;DHT22;7442;50.840;3.396;2022-12-18T00:54:43;19.30;43.10
14705;DHT22;7442;50.840;3.396;2022-12-18T00:57:13;19.30;43.10
14705;DHT22;7442;50.840;3.396;2022-12-18T00:59:43;19.30;43.00
14705;DHT22;7442;50.840;3.396;2022-12-18T01:02:13;19.20;42.90
14705;DHT22;7442;50.840;3.396;2022-12-18T01:04:43;19.20;43.00
14705;DHT22;7442;50.840;3.396;2022-12-18T01:07:13;19.20;43.00
14705;DHT22;7442;50.840;3.396;2022-12-18T01:09:43;19.10;42.80
14705;DHT22;7442;50.840;3.396;2022-12-18T01:12:13;19.10;42.80
14705;DHT22;7442;50.840;3.396;2022-12-18T01:14:43;19.10;42.80
14705;DHT22;7442;50.840;3.396;2022-12-18T01:17:13;19.10;42.70
14705;DHT22;7442;50.840;3.396;2022-12-18T01:19:43;19.10;42.60
14705;DHT22;7442;50.840;3.396;2022-12-18T01:22:13;19.10;42.60
14705;DHT22;7442;50.840;3.396;2022-12-18T01:24:44;19.10;42.60
14705;DHT22;7442;50.840;3.396;2022-12-18T01:27:14;19.10;42.60
14705;DHT22;7442;50.840;3.396;2022-12-18T01:32:02;19.10;42.50
14705;DHT22;7442;50.840;3.396;2022-12-18T01:34:32;19.00;42.50
14705;DHT22;7442;50.840;3.396;2022-12-18T01:37:04;19.00;42.40
14705;DHT22;7442;50.840;3.396;2022-12-18T01:39:34;19.00;42.40
14705;DHT22;7442;50.840;3.396;2022-12-18T01:42:10;19.00;42.30
14705;DHT22;7442;50.840;3.396;2022-12-18T01:50:34;18.90;42.10
14705;DHT22;7442;50.840;3.396;2022-12-18T01:53:14;18.90;42.10
14705;DHT22;7442;50.840;3.396;2022-12-18T01:55:50;18.90;42.10
14705;DHT22;7442;50.840;3.396;2022-12-18T01:59:08;18.80;42.00
14705;DHT22;7442;50.840;3.396;2022-12-18T02:00:55;18.80;42.00
14705;DHT22;7442;50.840;3.396;2022-12-18T02:03:25;18.80;42.10
14705;DHT22;7442;50.840;3.396;2022-12-18T02:06:01;18.70;42.00
14705;DHT22;7442;50.840;3.396;2022-12-18T02:14:22;18.70;41.80
14705;DHT22;7442;50.840;3.396;2022-12-18T02:22:42;18.70;41.70
14705;DHT22;7442;50.840;3.396;2022-12-18T02:27:47;18.70;41.60
14705;DHT22;7442;50.840;3.396;2022-12-18T02:30:19;18.60;41.70
14705;DHT22;7442;50.840;3.396;2022-12-18T02:32:52;18.60;41.70
14705;DHT22;7442;50.840;3.396;2022-12-18T02:35:25;18.60;41.90
14705;DHT22;7442;50.840;3.396;2022-12-18T02:37:56;18.60;42.10
14705;DHT22;7442;50.840;3.396;2022-12-18T02:40:28;18.60;41.60
14705;DHT22;7442;50.840;3.396;2022-12-18T02:43:10;18.60;41.50
14705;DHT22;7442;50.840;3.396;2022-12-18T02:45:49;18.60;41.40
14705;DHT22;7442;50.840;3.396;2022-12-18T02:48:23;18.50;41.30
14705;DHT22;7442;50.840;3.396;2022-12-18T02:51:15;18.50;41.40
14705;DHT22;7442;50.840;3.396;2022-12-18T02:53:43;18.50;41.30
14705;DHT22;7442;50.840;3.396;2022-12-18T02:56:24;18.50;41.30
14705;DHT22;7442;50.840;3.396;2022-12-18T02:59:11;18.50;41.30
14705;DHT22;7442;50.840;3.396;2022-12-18T03:01:50;18.40;41.30
14705;DHT22;7442;50.840;3.396;2022-12-18T03:04:40;18.40;41.20
14705;DHT22;7442;50.840;3.396;2022-12-18T03:07:15;18.40;41.20
14705;DHT22;7442;50.840;3.396;2022-12-18T03:09:46;18.40;41.20
14705;DHT22;7442;50.840;3.396;2022-12-18T03:12:32;18.40;41.20
14705;DHT22;7442;50.840;3.396;2022-12-18T03:17:54;18.30;41.10
14705;DHT22;7442;50.840;3.396;2022-12-18T03:20:25;18.30;41.10
14705;DHT22;7442;50.840;3.396;2022-12-18T03:23:04;18.30;41.80
14705;DHT22;7442;50.840;3.396;2022-12-18T03:25:30;18.30;41.10
14705;DHT22;7442;50.840;3.396;2022-12-18T03:28:03;18.30;41.00
14705;DHT22;7442;50.840;3.396;2022-12-18T03:30:36;18.30;41.00
14705;DHT22;7442;50.840;3.396;2022-12-18T03:33:15;18.20;41.00
14705;DHT22;7442;50.840;3.396;2022-12-18T03:35:42;18.20;40.90
14705;DHT22;7442;50.840;3.396;2022-12-18T03:38:13;18.20;40.90
14705;DHT22;7442;50.840;3.396;2022-12-18T03:41:07;18.20;40.90
14705;DHT22;7442;50.840;3.396;2022-12-18T03:43:52;18.20;40.90
14705;DHT22;7442;50.840;3.396;2022-12-18T03:52:09;18.20;40.90
14705;DHT22;7442;50.840;3.396;2022-12-18T03:54:41;18.10;40.70
14705;DHT22;7442;50.840;3.396;2022-12-18T03:57:21;18.10;41.40
14705;DHT22;7442;50.840;3.396;2022-12-18T03:59:58;18.10;40.70
14705;DHT22;7442;50.840;3.396;2022-12-18T04:02:29;18.00;40.70
14705;DHT22;7442;50.840;3.396;2022-12-18T04:05:02;18.00;40.80
14705;DHT22;7442;50.840;3.396;2022-12-18T04:07:33;18.00;40.70
14705;DHT22;7442;50.840;3.396;2022-12-18T04:10:06;18.00;40.80
14705;DHT22;7442;50.840;3.396;2022-12-18T04:12:37;18.00;40.80
14705;DHT22;7442;50.840;3.396;2022-12-18T04:15:08;17.90;40.80
14705;DHT22;7442;50.840;3.396;2022-12-18T04:17:43;17.90;40.70
14705;DHT22;7442;50.840;3.396;2022-12-18T04:20:12;17.90;40.70
14705;DHT22;7442;50.840;3.396;2022-12-18T04:22:42;17.90;40.70
14705;DHT22;7442;50.840;3.396;2022-12-18T04:25:12;17.90;40.70
14705;DHT22;7442;50.840;3.396;2022-12-18T04:27:43;17.80;40.70
14705;DHT22;7442;50.840;3.396;2022-12-18T04:30:19;17.80;40.70
14705;DHT22;7442;50.840;3.396;2022-12-18T04:32:49;17.80;40.70
14705;DHT22;7442;50.840;3.396;2022-12-18T04:35:19;17.80;40.80
14705;DHT22;7442;50.840;3.396;2022-12-18T04:37:50;17.70;40.60
14705;DHT22;7442;50.840;3.396;2022-12-18T04:40:23;17.70;40.60
14705;DHT22;7442;50.840;3.396;2022-12-18T04:42:53;17.70;40.70
14705;DHT22;7442;50.840;3.396;2022-12-18T04:45:23;17.70;40.60
14705;DHT22;7442;50.840;3.396;2022-12-18T04:47:53;17.70;40.70
14705;DHT22;7442;50.840;3.396;2022-12-18T04:50:23;17.70;40.70
14705;DHT22;7442;50.840;3.396;2022-12-18T04:52:55;17.70;40.60
14705;DHT22;7442;50.840;3.396;2022-12-18T04:55:25;17.60;40.60
14705;DHT22;7442;50.840;3.396;2022-12-18T04:57:55;17.60;40.60
14705;DHT22;7442;50.840;3.396;2022-12-18T05:00:25;17.60;40.50
14705;DHT22;7442;50.840;3.396;2022-12-18T05:02:56;17.60;40.60
14705;DHT22;7442;50.840;3.396;2022-12-18T05:05:26;17.60;40.60
14705;DHT22;7442;50.840;3.396;2022-12-18T05:07:56;17.50;40.50
14705;DHT22;7442;50.840;3.396;2022-12-18T05:10:27;17.50;40.50
14705;DHT22;7442;50.840;3.396;2022-12-18T05:12:57;17.50;40.50
14705;DHT22;7442;50.840;3.396;2022-12-18T05:15:29;17.50;40.50
14705;DHT22;7442;50.840;3.396;2022-12-18T05:18:00;17.50;40.50
14705;DHT22;7442;50.840;3.396;2022-12-18T05:20:31;17.50;40.50
14705;DHT22;7442;50.840;3.396;2022-12-18T05:23:01;17.50;40.50
14705;DHT22;7442;50.840;3.396;2022-12-18T05:25:37;17.50;40.50
14705;DHT22;7442;50.840;3.396;2022-12-18T05:28:13;17.50;40.40
14705;DHT22;7442;50.840;3.396;2022-12-18T05:30:51;17.40;40.30
14705;DHT22;7442;50.840;3.396;2022-12-18T05:33:23;17.40;40.40
14705;DHT22;7442;50.840;3.396;2022-12-18T05:35:55;17.40;40.40
14705;DHT22;7442;50.840;3.396;2022-12-18T05:38:27;17.40;40.40
14705;DHT22;7442;50.840;3.396;2022-12-18T05:40:58;17.40;40.30
14705;DHT22;7442;50.840;3.396;2022-12-18T05:43:28;17.30;40.20
14705;DHT22;7442;50.840;3.396;2022-12-18T05:46:05;17.40;40.30
14705;DHT22;7442;50.840;3.396;2022-12-18T05:48:32;17.30;40.20
14705;DHT22;7442;50.840;3.396;2022-12-18T05:51:11;17.30;40.30
14705;DHT22;7442;50.840;3.396;2022-12-18T05:53:43;17.30;40.30
14705;DHT22;7442;50.840;3.396;2022-12-18T05:56:20;17.30;40.30
14705;DHT22;7442;50.840;3.396;2022-12-18T05:58:47;17.30;40.20
14705;DHT22;7442;50.840;3.396;2022-12-18T06:01:21;17.30;40.20
14705;DHT22;7442;50.840;3.396;2022-12-18T06:03:52;17.30;40.30
14705;DHT22;7442;50.840;3.396;2022-12-18T06:06:29;17.20;40.30
14705;DHT22;7442;50.840;3.396;2022-12-18T06:08:55;17.20;40.20
14705;DHT22;7442;50.840;3.396;2022-12-18T06:11:26;17.20;40.30
14705;DHT22;7442;50.840;3.396;2022-12-18T06:13:57;17.20;40.30
14705;DHT22;7442;50.840;3.396;2022-12-18T06:16:28;17.20;40.20
14705;DHT22;7442;50.840;3.396;2022-12-18T06:19:00;17.20;40.20
14705;DHT22;7442;50.840;3.396;2022-12-18T06:21:31;17.20;40.20
14705;DHT22;7442;50.840;3.396;2022-12-18T06:24:01;17.10;40.10
14705;DHT22;7442;50.840;3.396;2022-12-18T06:26:31;17.10;40.00
14705;DHT22;7442;50.840;3.396;2022-12-18T06:29:01;17.10;40.10
14705;DHT22;7442;50.840;3.396;2022-12-18T06:31:31;17.10;40.10
14705;DHT22;7442;50.840;3.396;2022-12-18T06:34:03;17.10;40.20
14705;DHT22;7442;50.840;3.396;2022-12-18T06:36:33;17.10;40.10
14705;DHT22;7442;50.840;3.396;2022-12-18T06:39:03;17.10;40.10
14705;DHT22;7442;50.840;3.396;2022-12-18T06:41:33;17.00;40.10
14705;DHT22;7442;50.840;3.396;2022-12-18T06:44:04;17.00;40.10
14705;DHT22;7442;50.840;3.396;2022-12-18T06:46:34;17.00;40.10
14705;DHT22;7442;50.840;3.396;2022-12-18T06:49:07;17.00;40.00
14705;DHT22;7442;50.840;3.396;2022-12-18T06:51:38;17.00;40.00
14705;DHT22;7442;50.840;3.396;2022-12-18T06:54:08;17.00;40.10
14705;DHT22;7442;50.840;3.396;2022-12-18T06:56:38;17.00;40.00
14705;DHT22;7442;50.840;3.396;2022-12-18T06:59:08;17.00;40.00
14705;DHT22;7442;50.840;3.396;2022-12-18T07:01:38;16.90;40.00
14705;DHT22;7442;50.840;3.396;2022-12-18T07:04:09;16.90;40.00
14705;DHT22;7442;50.840;3.396;2022-12-18T07:06:39;16.90;40.00
14705;DHT22;7442;50.840;3.396;2022-12-18T07:09:10;16.90;40.00
14705;DHT22;7442;50.840;3.396;2022-12-18T07:11:41;16.90;40.00
14705;DHT22;7442;50.840;3.396;2022-12-18T07:14:11;16.90;39.90
14705;DHT22;7442;50.840;3.396;2022-12-18T07:16:41;16.90;39.90
14705;DHT22;7442;50.840;3.396;2022-12-18T07:19:11;16.90;40.00
14705;DHT22;7442;50.840;3.396;2022-12-18T07:21:41;16.90;40.00
14705;DHT22;7442;50.840;3.396;2022-12-18T07:24:11;16.80;39.90
14705;DHT22;7442;50.840;3.396;2022-12-18T07:26:41;16.80;39.90
14705;DHT22;7442;50.840;3.396;2022-12-18T07:29:11;16.80;40.00
14705;DHT22;7442;50.840;3.396;2022-12-18T07:31:42;16.80;39.90
14705;DHT22;7442;50.840;3.396;2022-12-18T07:34:13;16.80;39.90
14705;DHT22;7442;50.840;3.396;2022-12-18T07:36:44;16.80;39.90
14705;DHT22;7442;50.840;3.396;2022-12-18T07:39:14;16.80;39.80
14705;DHT22;7442;50.840;3.396;2022-12-18T07:41:45;16.80;39.90
14705;DHT22;7442;50.840;3.396;2022-12-18T07:44:17;16.70;39.80
14705;DHT22;7442;50.840;3.396;2022-12-18T07:46:48;16.70;39.80
14705;DHT22;7442;50.840;3.396;2022-12-18T07:49:24;16.70;39.80
14705;DHT22;7442;50.840;3.396;2022-12-18T07:51:55;16.70;39.80
14705;DHT22;7442;50.840;3.396;2022-12-18T07:54:25;16.70;39.80
14705;DHT22;7442;50.840;3.396;2022-12-18T07:56:55;16.70;39.80
14705;DHT22;7442;50.840;3.396;2022-12-18T07:59:25;16.70;39.80
14705;DHT22;7442;50.840;3.396;2022-12-18T08:02:03;16.60;39.80
14705;DHT22;7442;50.840;3.396;2022-12-18T08:04:33;16.60;39.70
14705;DHT22;7442;50.840;3.396;2022-12-18T08:07:03;16.60;39.70
14705;DHT22;7442;50.840;3.396;2022-12-18T08:09:33;16.60;39.70
14705;DHT22;7442;50.840;3.396;2022-12-18T08:12:03;16.60;39.70
14705;DHT22;7442;50.840;3.396;2022-12-18T08:14:33;16.60;39.70
14705;DHT22;7442;50.840;3.396;2022-12-18T08:17:04;16.60;39.70
14705;DHT22;7442;50.840;3.396;2022-12-18T08:19:35;16.60;39.70
14705;DHT22;7442;50.840;3.396;2022-12-18T08:22:05;16.60;39.60
14705;DHT22;7442;50.840;3.396;2022-12-18T08:24:35;16.60;39.60
14705;DHT22;7442;50.840;3.396;2022-12-18T08:27:05;16.60;39.60
14705;DHT22;7442;50.840;3.396;2022-12-18T08:29:35;16.60;39.50
14705;DHT22;7442;50.840;3.396;2022-12-18T08:32:06;16.60;39.60
14705;DHT22;7442;50.840;3.396;2022-12-18T08:34:36;16.60;39.60
14705;DHT22;7442;50.840;3.396;2022-12-18T08:37:07;16.60;39.60
14705;DHT22;7442;50.840;3.396;2022-12-18T08:39:36;16.60;39.60
14705;DHT22;7442;50.840;3.396;2022-12-18T08:42:06;16.60;39.60
14705;DHT22;7442;50.840;3.396;2022-12-18T08:44:55;16.60;39.90
14705;DHT22;7442;50.840;3.396;2022-12-18T08:47:25;16.60;39.50
14705;DHT22;7442;50.840;3.396;2022-12-18T08:49:55;16.60;39.60
14705;DHT22;7442;50.840;3.396;2022-12-18T08:52:25;16.60;39.60
14705;DHT22;7442;50.840;3.396;2022-12-18T08:54:55;16.60;39.50
14705;DHT22;7442;50.840;3.396;2022-12-18T08:57:25;16.60;39.50
14705;DHT22;7442;50.840;3.396;2022-12-18T08:59:55;16.60;39.50
14705;DHT22;7442;50.840;3.396;2022-12-18T09:02:25;16.60;39.50
14705;DHT22;7442;50.840;3.396;2022-12-18T09:04:55;16.60;39.50
14705;DHT22;7442;50.840;3.396;2022-12-18T09:07:25;16.60;39.50
14705;DHT22;7442;50.840;3.396;2022-12-18T09:09:55;16.60;39.50
14705;DHT22;7442;50.840;3.396;2022-12-18T09:12:25;16.60;39.50
14705;DHT22;7442;50.840;3.396;2022-12-18T09:14:55;16.50;40.20
14705;DHT22;7442;50.840;3.396;2022-12-18T09:17:25;16.50;39.50
14705;DHT22;7442;50.840;3.396;2022-12-18T09:19:55;16.50;39.50
14705;DHT22;7442;50.840;3.396;2022-12-18T09:22:28;16.50;39.50
14705;DHT22;7442;50.840;3.396;2022-12-18T09:24:58;16.50;39.50
14705;DHT22;7442;50.840;3.396;2022-12-18T09:27:28;16.60;39.80
14705;DHT22;7442;50.840;3.396;2022-12-18T09:29:58;16.80;39.60
14705;DHT22;7442;50.840;3.396;2022-12-18T09:32:28;16.90;39.50
14705;DHT22;7442;50.840;3.396;2022-12-18T09:34:58;17.10;39.20
14705;DHT22;7442;50.840;3.396;2022-12-18T09:37:28;17.20;39.00
14705;DHT22;7442;50.840;3.396;2022-12-18T09:39:58;17.40;38.80
14705;DHT22;7442;50.840;3.396;2022-12-18T09:42:28;17.50;39.00
14705;DHT22;7442;50.840;3.396;2022-12-18T09:45:00;17.70;39.00
14705;DHT22;7442;50.840;3.396;2022-12-18T09:47:37;17.80;39.10
14705;DHT22;7442;50.840;3.396;2022-12-18T09:50:19;17.90;39.20
14705;DHT22;7442;50.840;3.396;2022-12-18T09:52:48;18.00;39.30
14705;DHT22;7442;50.840;3.396;2022-12-18T09:55:36;18.00;40.10
14705;DHT22;7442;50.840;3.396;2022-12-18T09:58:28;18.10;39.50
14705;DHT22;7442;50.840;3.396;2022-12-18T10:00:59;18.10;39.60
14705;DHT22;7442;50.840;3.396;2022-12-18T10:03:32;18.20;39.60
14705;DHT22;7442;50.840;3.396;2022-12-18T10:06:31;18.20;39.60
14705;DHT22;7442;50.840;3.396;2022-12-18T10:08:46;18.30;39.60
14705;DHT22;7442;50.840;3.396;2022-12-18T10:14:09;18.40;39.50
14705;DHT22;7442;50.840;3.396;2022-12-18T10:16:52;18.50;39.50
14705;DHT22;7442;50.840;3.396;2022-12-18T10:19:35;18.50;39.40
14705;DHT22;7442;50.840;3.396;2022-12-18T10:27:29;18.70;39.70
14705;DHT22;7442;50.840;3.396;2022-12-18T10:30:07;18.60;38.90
14705;DHT22;7442;50.840;3.396;2022-12-18T10:32:35;18.70;39.10
14705;DHT22;7442;50.840;3.396;2022-12-18T10:35:09;18.80;39.00
14705;DHT22;7442;50.840;3.396;2022-12-18T10:37:42;18.80;39.00
14705;DHT22;7442;50.840;3.396;2022-12-18T10:40:15;18.90;38.90
14705;DHT22;7442;50.840;3.396;2022-12-18T10:42:45;18.90;38.80
14705;DHT22;7442;50.840;3.396;2022-12-18T10:45:17;18.90;38.60
14705;DHT22;7442;50.840;3.396;2022-12-18T10:47:49;19.00;38.70
14705;DHT22;7442;50.840;3.396;2022-12-18T10:50:36;19.10;47.60
14705;DHT22;7442;50.840;3.396;2022-12-18T10:53:13;19.30;46.00
14705;DHT22;7442;50.840;3.396;2022-12-18T10:55:43;19.30;46.60
14705;DHT22;7442;50.840;3.396;2022-12-18T11:03:46;19.40;43.10
14705;DHT22;7442;50.840;3.396;2022-12-18T11:06:19;19.50;43.00
14705;DHT22;7442;50.840;3.396;2022-12-18T11:09:05;19.50;42.70
14705;DHT22;7442;50.840;3.396;2022-12-18T11:11:35;19.50;44.30
14705;DHT22;7442;50.840;3.396;2022-12-18T11:14:27;19.50;45.50
14705;DHT22;7442;50.840;3.396;2022-12-18T11:16:59;19.50;43.90
14705;DHT22;7442;50.840;3.396;2022-12-18T11:19:37;19.50;45.20
14705;DHT22;7442;50.840;3.396;2022-12-18T11:22:20;19.50;43.60
14705;DHT22;7442;50.840;3.396;2022-12-18T11:25:02;19.40;42.40
14705;DHT22;7442;50.840;3.396;2022-12-18T11:27:33;19.60;42.70
14705;DHT22;7442;50.840;3.396;2022-12-18T11:30:25;19.70;42.70
14705;DHT22;7442;50.840;3.396;2022-12-18T11:32:58;19.60;42.40
14705;DHT22;7442;50.840;3.396;2022-12-18T11:35:37;19.60;42.70
14705;DHT22;7442;50.840;3.396;2022-12-18T11:38:21;19.50;42.90
14705;DHT22;7442;50.840;3.396;2022-12-18T11:41:02;19.40;43.10
14705;DHT22;7442;50.840;3.396;2022-12-18T11:43:52;19.40;43.40
14705;DHT22;7442;50.840;3.396;2022-12-18T11:46:39;19.30;43.30
14705;DHT22;7442;50.840;3.396;2022-12-18T11:49:17;19.10;45.80
14705;DHT22;7442;50.840;3.396;2022-12-18T11:52:41;19.00;41.60
14705;DHT22;7442;50.840;3.396;2022-12-18T11:54:33;18.90;41.80
14705;DHT22;7442;50.840;3.396;2022-12-18T11:57:34;18.80;43.10
14705;DHT22;7442;50.840;3.396;2022-12-18T12:00:21;18.90;43.80
14705;DHT22;7442;50.840;3.396;2022-12-18T12:03:35;18.90;44.00
14705;DHT22;7442;50.840;3.396;2022-12-18T12:06:10;18.80;43.80
14705;DHT22;7442;50.840;3.396;2022-12-18T12:11:35;18.70;43.40
14705;DHT22;7442;50.840;3.396;2022-12-18T12:25:28;18.60;44.00
14705;DHT22;7442;50.840;3.396;2022-12-18T12:28:15;18.60;45.10
14705;DHT22;7442;50.840;3.396;2022-12-18T12:31:16;18.50;47.00
14705;DHT22;7442;50.840;3.396;2022-12-18T12:36:10;18.50;45.50
14705;DHT22;7442;50.840;3.396;2022-12-18T12:38:44;18.50;45.20
14705;DHT22;7442;50.840;3.396;2022-12-18T12:41:19;18.50;45.40
14705;DHT22;7442;50.840;3.396;2022-12-18T12:44:13;18.50;45.30
14705;DHT22;7442;50.840;3.396;2022-12-18T12:46:42;18.60;45.30
14705;DHT22;7442;50.840;3.396;2022-12-18T12:49:19;18.50;45.20
14705;DHT22;7442;50.840;3.396;2022-12-18T12:51:50;18.60;45.20
14705;DHT22;7442;50.840;3.396;2022-12-18T12:54:21;18.60;45.40
14705;DHT22;7442;50.840;3.396;2022-12-18T13:05:34;18.50;47.40
14705;DHT22;7442;50.840;3.396;2022-12-18T13:08:24;18.40;47.20
14705;DHT22;7442;50.840;3.396;2022-12-18T13:10:44;18.40;47.10
14705;DHT22;7442;50.840;3.396;2022-12-18T13:13:15;18.40;46.90
14705;DHT22;7442;50.840;3.396;2022-12-18T13:15:48;18.40;46.80
14705;DHT22;7442;50.840;3.396;2022-12-18T13:18:23;18.40;46.80
14705;DHT22;7442;50.840;3.396;2022-12-18T13:23:33;18.30;46.50
14705;DHT22;7442;50.840;3.396;2022-12-18T13:34:16;18.20;46.20
14705;DHT22;7442;50.840;3.396;2022-12-18T13:36:47;18.10;46.30
14705;DHT22;7442;50.840;3.396;2022-12-18T13:44:39;18.10;46.60
14705;DHT22;7442;50.840;3.396;2022-12-18T13:47:32;18.10;46.40
14705;DHT22;7442;50.840;3.396;2022-12-18T13:50:39;18.10;46.40
14705;DHT22;7442;50.840;3.396;2022-12-18T13:52:43;18.10;46.70
14705;DHT22;7442;50.840;3.396;2022-12-18T13:55:19;18.10;46.70
14705;DHT22;7442;50.840;3.396;2022-12-18T13:57:49;18.00;46.90
14705;DHT22;7442;50.840;3.396;2022-12-18T14:00:27;18.00;46.90
14705;DHT22;7442;50.840;3.396;2022-12-18T14:02:59;18.00;46.80
14705;DHT22;7442;50.840;3.396;2022-12-18T14:05:36;17.90;46.80
14705;DHT22;7442;50.840;3.396;2022-12-18T14:08:09;17.90;46.80
14705;DHT22;7442;50.840;3.396;2022-12-18T14:10:45;17.80;46.80
14705;DHT22;7442;50.840;3.396;2022-12-18T14:13:31;17.80;46.80
14705;DHT22;7442;50.840;3.396;2022-12-18T14:16:04;17.80;46.70
14705;DHT22;7442;50.840;3.396;2022-12-18T14:18:45;17.80;46.70
14705;DHT22;7442;50.840;3.396;2022-12-18T14:21:29;17.70;46.50
14705;DHT22;7442;50.840;3.396;2022-12-18T14:26:40;17.70;46.30
14705;DHT22;7442;50.840;3.396;2022-12-18T14:29:28;17.70;46.20
14705;DHT22;7442;50.840;3.396;2022-12-18T14:32:10;17.60;45.90
14705;DHT22;7442;50.840;3.396;2022-12-18T14:34:43;17.60;45.70
14705;DHT22;7442;50.840;3.396;2022-12-18T14:37:16;17.60;44.80
14705;DHT22;7442;50.840;3.396;2022-12-18T14:40:00;17.50;44.10
14705;DHT22;7442;50.840;3.396;2022-12-18T14:42:34;17.50;44.30
14705;DHT22;7442;50.840;3.396;2022-12-18T14:47:22;17.50;44.30
14705;DHT22;7442;50.840;3.396;2022-12-18T14:49:52;17.50;44.60
14705;DHT22;7442;50.840;3.396;2022-12-18T14:52:26;17.50;44.70
14705;DHT22;7442;50.840;3.396;2022-12-18T14:54:55;17.50;44.90
14705;DHT22;7442;50.840;3.396;2022-12-18T14:57:32;17.40;45.50
14705;DHT22;7442;50.840;3.396;2022-12-18T15:00:18;17.40;45.10
14705;DHT22;7442;50.840;3.396;2022-12-18T15:02:54;17.40;45.20
14705;DHT22;7442;50.840;3.396;2022-12-18T15:05:29;17.30;45.20
14705;DHT22;7442;50.840;3.396;2022-12-18T15:08:53;17.30;45.00
14705;DHT22;7442;50.840;3.396;2022-12-18T15:10:45;17.30;44.90
14705;DHT22;7442;50.840;3.396;2022-12-18T15:13:23;17.30;44.80
14705;DHT22;7442;50.840;3.396;2022-12-18T15:15:57;17.30;44.80
14705;DHT22;7442;50.840;3.396;2022-12-18T15:18:35;17.30;45.00
14705;DHT22;7442;50.840;3.396;2022-12-18T15:21:11;17.30;44.70
14705;DHT22;7442;50.840;3.396;2022-12-18T15:23:48;17.30;44.60
14705;DHT22;7442;50.840;3.396;2022-12-18T15:26:22;17.30;44.50
14705;DHT22;7442;50.840;3.396;2022-12-18T15:28:58;17.30;44.10
14705;DHT22;7442;50.840;3.396;2022-12-18T15:31:29;17.40;44.10
14705;DHT22;7442;50.840;3.396;2022-12-18T15:36:38;17.40;44.20
14705;DHT22;7442;50.840;3.396;2022-12-18T15:39:11;17.50;44.10
14705;DHT22;7442;50.840;3.396;2022-12-18T15:41:41;17.50;43.60
14705;DHT22;7442;50.840;3.396;2022-12-18T15:44:22;17.50;45.10
14705;DHT22;7442;50.840;3.396;2022-12-18T15:46:58;17.60;45.70
14705;DHT22;7442;50.840;3.396;2022-12-18T15:49:28;17.70;45.30
14705;DHT22;7442;50.840;3.396;2022-12-18T15:52:01;17.80;45.00
14705;DHT22;7442;50.840;3.396;2022-12-18T15:54:31;17.80;44.70
14705;DHT22;7442;50.840;3.396;2022-12-18T15:57:20;17.80;44.50
14705;DHT22;7442;50.840;3.396;2022-12-18T15:59:54;17.80;44.40
14705;DHT22;7442;50.840;3.396;2022-12-18T16:02:27;17.80;44.50
14705;DHT22;7442;50.840;3.396;2022-12-18T16:04:57;17.90;44.50
14705;DHT22;7442;50.840;3.396;2022-12-18T16:07:29;17.90;44.50
14705;DHT22;7442;50.840;3.396;2022-12-18T16:09:59;17.90;44.20
14705;DHT22;7442;50.840;3.396;2022-12-18T16:12:32;18.00;44.00
14705;DHT22;7442;50.840;3.396;2022-12-18T16:15:05;18.00;43.80
14705;DHT22;7442;50.840;3.396;2022-12-18T16:17:35;18.10;43.90
14705;DHT22;7442;50.840;3.396;2022-12-18T16:20:16;18.10;43.60
14705;DHT22;7442;50.840;3.396;2022-12-18T16:22:37;18.10;44.10
14705;DHT22;7442;50.840;3.396;2022-12-18T16:44:55;18.80;42.60
14705;DHT22;7442;50.840;3.396;2022-12-18T16:47:25;18.70;42.10
14705;DHT22;7442;50.840;3.396;2022-12-18T16:49:55;18.60;42.20
14705;DHT22;7442;50.840;3.396;2022-12-18T16:52:25;18.50;42.30
14705;DHT22;7442;50.840;3.396;2022-12-18T16:54:55;18.40;42.50
14705;DHT22;7442;50.840;3.396;2022-12-18T16:57:27;18.50;42.50
14705;DHT22;7442;50.840;3.396;2022-12-18T16:59:57;18.50;42.40
14705;DHT22;7442;50.840;3.396;2022-12-18T17:02:27;18.50;42.40
14705;DHT22;7442;50.840;3.396;2022-12-18T17:04:57;18.50;42.50
14705;DHT22;7442;50.840;3.396;2022-12-18T17:07:28;18.50;42.40
14705;DHT22;7442;50.840;3.396;2022-12-18T17:16:32;18.80;42.60
14705;DHT22;7442;50.840;3.396;2022-12-18T17:19:14;18.90;42.70
14705;DHT22;7442;50.840;3.396;2022-12-18T17:21:47;18.90;42.90
14705;DHT22;7442;50.840;3.396;2022-12-18T17:24:19;19.00;41.60
14705;DHT22;7442;50.840;3.396;2022-12-18T17:26:49;18.90;41.60
14705;DHT22;7442;50.840;3.396;2022-12-18T17:29:19;18.80;41.50
14705;DHT22;7442;50.840;3.396;2022-12-18T17:32:02;18.70;41.60
14705;DHT22;7442;50.840;3.396;2022-12-18T19:11:28;19.20;43.10
14705;DHT22;7442;50.840;3.396;2022-12-18T19:14:35;19.10;42.80
14705;DHT22;7442;50.840;3.396;2022-12-18T19:20:41;19.10;43.10
14705;DHT22;7442;50.840;3.396;2022-12-18T22:30:14;20.10;40.60
14705;DHT22;7442;50.840;3.396;2022-12-18T22:32:44;20.40;39.20
14705;DHT22;7442;50.840;3.396;2022-12-18T22:35:14;20.20;38.90
14705;DHT22;7442;50.840;3.396;2022-12-18T22:37:44;20.10;39.10
14705;DHT22;7442;50.840;3.396;2022-12-18T22:40:20;20.10;39.10
14705;DHT22;7442;50.840;3.396;2022-12-18T22:42:52;20.00;39.20
14705;DHT22;7442;50.840;3.396;2022-12-18T22:45:24;20.00;39.20
14705;DHT22;7442;50.840;3.396;2022-12-18T22:47:55;20.00;39.20
14705;DHT22;7442;50.840;3.396;2022-12-18T22:50:25;20.00;39.20
14705;DHT22;7442;50.840;3.396;2022-12-18T22:52:57;20.00;39.00
14705;DHT22;7442;50.840;3.396;2022-12-18T22:55:27;20.00;39.00
14705;DHT22;7442;50.840;3.396;2022-12-18T22:57:57;20.00;38.60
14705;DHT22;7442;50.840;3.396;2022-12-18T23:00:27;20.00;38.90
14705;DHT22;7442;50.840;3.396;2022-12-18T23:02:57;20.00;38.80
14705;DHT22;7442;50.840;3.396;2022-12-18T23:05:29;20.00;38.80
14705;DHT22;7442;50.840;3.396;2022-12-18T23:07:59;19.90;38.80
14705;DHT22;7442;50.840;3.396;2022-12-18T23:10:29;19.90;38.90
14705;DHT22;7442;50.840;3.396;2022-12-18T23:12:59;20.00;38.80